sensor_id;sensor_type;location;lat;lon;timestamp;pressure;altitude;pressure_sealevel;temperature;humidity
41703;BME280;861;48.808;9.006;2023-08-06T00:00:52;96369.00;;;18.13;81.23
41703;BME280;861;48.808;9.006;2023-08-06T00:03:19;96372.00;;;18.06;81.00
41703;BME280;861;48.808;9.006;2023-08-06T00:05:45;96379.66;;;17.81;82.33
41703;BME280;861;48.808;9.006;2023-08-06T00:08:12;96366.91;;;17.74;82.91
41703;BME280;861;48.808;9.006;2023-08-06T00:10:40;96376.44;;;17.82;81.92
41703;BME280;861;48.808;9.006;2023-08-06T00:13:07;96366.84;;;17.87;81.34
41703;BME280;861;48.808;9.006;2023-08-06T00:15:34;96364.41;;;17.89;81.21
41703;BME280;861;48.808;9.006;2023-08-06T00:18:01;96360.50;;;17.77;81.17
41703;BME280;861;48.808;9.006;2023-08-06T00:20:27;96361.91;;;17.82;81.07
41703;BME280;861;48.808;9.006;2023-08-06T00:22:54;96353.66;;;17.82;80.38
41703;BME280;861;48.808;9.006;2023-08-06T00:25:20;96352.72;;;17.76;80.97
41703;BME280;861;48.808;9.006;2023-08-06T00:27:47;96352.81;;;17.72;81.04
41703;BME280;861;48.808;9.006;2023-08-06T00:30:13;96356.19;;;17.76;80.78
41703;BME280;861;48.808;9.006;2023-08-06T00:32:40;96357.16;;;17.61;81.35
41703;BME280;861;48.808;9.006;2023-08-06T00:35:07;96350.81;;;17.17;82.66
41703;BME280;861;48.808;9.006;2023-08-06T00:37:33;96355.06;;;17.31;82.47
41703;BME280;861;48.808;9.006;2023-08-06T00:40:00;96347.31;;;17.38;82.17
41703;BME280;861;48.808;9.006;2023-08-06T00:42:27;96351.16;;;17.41;81.76
41703;BME280;861;48.808;9.006;2023-08-06T00:44:53;96335.34;;;17.32;80.45
41703;BME280;861;48.808;9.006;2023-08-06T00:47:20;96336.25;;;17.29;81.65
41703;BME280;861;48.808;9.006;2023-08-06T00:49:47;96333.38;;;17.33;81.11
41703;BME280;861;48.808;9.006;2023-08-06T00:52:14;96320.50;;;17.30;81.68
41703;BME280;861;48.808;9.006;2023-08-06T00:54:41;96316.59;;;17.40;80.63
41703;BME280;861;48.808;9.006;2023-08-06T00:57:10;96323.97;;;17.43;80.28
41703;BME280;861;48.808;9.006;2023-08-06T00:59:38;96318.09;;;17.32;81.61
41703;BME280;861;48.808;9.006;2023-08-06T01:02:05;96308.09;;;17.25;80.95
41703;BME280;861;48.808;9.006;2023-08-06T01:04:32;96315.69;;;17.21;81.45
41703;BME280;861;48.808;9.006;2023-08-06T01:11:26;96295.13;;;16.79;83.09
41703;BME280;861;48.808;9.006;2023-08-06T01:14:23;96293.25;;;16.89;81.93
41703;BME280;861;48.808;9.006;2023-08-06T01:16:59;96300.22;;;16.68;82.99
41703;BME280;861;48.808;9.006;2023-08-06T01:19:27;96298.56;;;16.70;83.84
41703;BME280;861;48.808;9.006;2023-08-06T01:21:54;96301.13;;;16.52;83.96
41703;BME280;861;48.808;9.006;2023-08-06T01:24:20;96309.53;;;16.70;82.86
41703;BME280;861;48.808;9.006;2023-08-06T01:30:12;96295.84;;;17.05;81.43
41703;BME280;861;48.808;9.006;2023-08-06T01:32:50;96293.72;;;17.09;80.61
41703;BME280;861;48.808;9.006;2023-08-06T01:35:27;96299.25;;;16.96;81.46
41703;BME280;861;48.808;9.006;2023-08-06T01:37:56;96297.63;;;16.86;81.93
41703;BME280;861;48.808;9.006;2023-08-06T01:40:22;96302.38;;;16.86;81.92
41703;BME280;861;48.808;9.006;2023-08-06T01:42:49;96292.38;;;16.79;81.72
41703;BME280;861;48.808;9.006;2023-08-06T01:45:16;96296.22;;;16.81;81.25
41703;BME280;861;48.808;9.006;2023-08-06T01:47:42;96295.94;;;16.67;81.31
41703;BME280;861;48.808;9.006;2023-08-06T01:50:09;96298.00;;;16.63;81.81
41703;BME280;861;48.808;9.006;2023-08-06T01:52:35;96302.44;;;16.60;81.52
41703;BME280;861;48.808;9.006;2023-08-06T01:55:02;96294.72;;;16.68;81.06
41703;BME280;861;48.808;9.006;2023-08-06T01:57:29;96281.41;;;16.66;80.79
41703;BME280;861;48.808;9.006;2023-08-06T01:59:55;96279.22;;;16.61;81.27
41703;BME280;861;48.808;9.006;2023-08-06T02:02:22;96268.03;;;16.56;81.92
41703;BME280;861;48.808;9.006;2023-08-06T02:04:48;96268.34;;;16.58;81.09
41703;BME280;861;48.808;9.006;2023-08-06T02:07:15;96266.59;;;16.51;81.13
41703;BME280;861;48.808;9.006;2023-08-06T02:09:41;96262.19;;;16.41;82.05
41703;BME280;861;48.808;9.006;2023-08-06T02:12:08;96253.19;;;16.16;83.25
41703;BME280;861;48.808;9.006;2023-08-06T02:14:36;96253.53;;;16.18;82.97
41703;BME280;861;48.808;9.006;2023-08-06T02:17:03;96243.88;;;16.26;81.76
41703;BME280;861;48.808;9.006;2023-08-06T02:19:30;96239.81;;;16.18;82.52
41703;BME280;861;48.808;9.006;2023-08-06T02:21:56;96247.38;;;16.14;82.49
41703;BME280;861;48.808;9.006;2023-08-06T02:24:23;96249.47;;;16.22;81.82
41703;BME280;861;48.808;9.006;2023-08-06T02:26:49;96245.84;;;16.13;81.99
41703;BME280;861;48.808;9.006;2023-08-06T02:29:18;96232.56;;;16.11;82.74
41703;BME280;861;48.808;9.006;2023-08-06T02:31:45;96226.50;;;16.29;81.66
41703;BME280;861;48.808;9.006;2023-08-06T02:34:11;96227.25;;;16.17;82.24
41703;BME280;861;48.808;9.006;2023-08-06T02:36:38;96225.94;;;16.34;80.57
41703;BME280;861;48.808;9.006;2023-08-06T02:39:04;96224.75;;;16.10;82.32
41703;BME280;861;48.808;9.006;2023-08-06T02:41:31;96223.53;;;16.11;82.92
41703;BME280;861;48.808;9.006;2023-08-06T02:43:58;96211.59;;;15.80;84.44
41703;BME280;861;48.808;9.006;2023-08-06T02:46:24;96216.28;;;15.79;83.69
41703;BME280;861;48.808;9.006;2023-08-06T02:48:51;96216.81;;;15.49;85.24
41703;BME280;861;48.808;9.006;2023-08-06T02:51:18;96206.53;;;15.66;84.18
41703;BME280;861;48.808;9.006;2023-08-06T02:53:44;96203.09;;;15.49;85.27
41703;BME280;861;48.808;9.006;2023-08-06T02:56:11;96205.75;;;15.53;85.23
41703;BME280;861;48.808;9.006;2023-08-06T02:58:38;96200.38;;;15.62;84.94
41703;BME280;861;48.808;9.006;2023-08-06T03:01:07;96197.72;;;15.46;85.45
41703;BME280;861;48.808;9.006;2023-08-06T03:03:35;96201.81;;;15.54;86.08
41703;BME280;861;48.808;9.006;2023-08-06T03:06:01;96196.63;;;15.56;85.54
41703;BME280;861;48.808;9.006;2023-08-06T03:08:29;96189.38;;;15.62;85.48
41703;BME280;861;48.808;9.006;2023-08-06T03:10:56;96181.81;;;15.78;84.63
41703;BME280;861;48.808;9.006;2023-08-06T03:13:22;96177.75;;;15.70;85.73
41703;BME280;861;48.808;9.006;2023-08-06T03:15:58;96177.88;;;15.54;85.57
41703;BME280;861;48.808;9.006;2023-08-06T03:18:26;96181.72;;;15.69;85.49
41703;BME280;861;48.808;9.006;2023-08-06T03:20:54;96183.16;;;15.74;85.38
41703;BME280;861;48.808;9.006;2023-08-06T03:23:21;96182.69;;;15.50;86.34
41703;BME280;861;48.808;9.006;2023-08-06T03:25:47;96179.97;;;15.50;86.23
41703;BME280;861;48.808;9.006;2023-08-06T03:28:14;96186.78;;;15.58;85.57
41703;BME280;861;48.808;9.006;2023-08-06T03:30:40;96186.88;;;15.42;85.82
41703;BME280;861;48.808;9.006;2023-08-06T03:33:07;96188.72;;;15.45;86.58
41703;BME280;861;48.808;9.006;2023-08-06T03:35:33;96194.69;;;15.27;87.86
41703;BME280;861;48.808;9.006;2023-08-06T03:38:00;96192.06;;;15.36;87.53
41703;BME280;861;48.808;9.006;2023-08-06T03:40:28;96190.00;;;15.28;88.31
41703;BME280;861;48.808;9.006;2023-08-06T03:42:55;96189.13;;;15.31;88.02
41703;BME280;861;48.808;9.006;2023-08-06T03:45:22;96190.59;;;15.07;90.08
41703;BME280;861;48.808;9.006;2023-08-06T03:47:49;96198.41;;;15.21;89.31
41703;BME280;861;48.808;9.006;2023-08-06T03:50:15;96201.47;;;15.10;89.88
41703;BME280;861;48.808;9.006;2023-08-06T03:52:42;96197.97;;;15.22;89.49
41703;BME280;861;48.808;9.006;2023-08-06T03:55:08;96188.53;;;15.11;90.57
41703;BME280;861;48.808;9.006;2023-08-06T03:57:35;96190.44;;;15.26;89.83
41703;BME280;861;48.808;9.006;2023-08-06T04:00:03;96187.66;;;15.14;91.30
41703;BME280;861;48.808;9.006;2023-08-06T04:02:30;96192.84;;;15.24;90.12
41703;BME280;861;48.808;9.006;2023-08-06T04:04:56;96201.41;;;15.26;90.80
41703;BME280;861;48.808;9.006;2023-08-06T04:07:25;96197.00;;;15.29;90.21
41703;BME280;861;48.808;9.006;2023-08-06T04:09:59;96195.25;;;15.35;89.92
41703;BME280;861;48.808;9.006;2023-08-06T04:12:27;96213.03;;;15.30;90.76
41703;BME280;861;48.808;9.006;2023-08-06T04:14:56;96215.09;;;15.55;89.49
41703;BME280;861;48.808;9.006;2023-08-06T04:17:24;96223.13;;;15.33;90.25
41703;BME280;861;48.808;9.006;2023-08-06T04:19:53;96215.25;;;15.35;90.92
41703;BME280;861;48.808;9.006;2023-08-06T04:22:22;96221.00;;;15.41;90.46
41703;BME280;861;48.808;9.006;2023-08-06T04:24:48;96226.25;;;15.48;90.21
41703;BME280;861;48.808;9.006;2023-08-06T04:27:17;96209.16;;;15.44;90.10
41703;BME280;861;48.808;9.006;2023-08-06T04:29:44;96202.25;;;15.11;93.06
41703;BME280;861;48.808;9.006;2023-08-06T04:32:11;96195.34;;;15.19;92.25
41703;BME280;861;48.808;9.006;2023-08-06T04:34:39;96201.41;;;15.26;92.86
41703;BME280;861;48.808;9.006;2023-08-06T04:37:06;96213.28;;;15.36;91.93
41703;BME280;861;48.808;9.006;2023-08-06T04:39:32;96220.03;;;15.19;92.14
41703;BME280;861;48.808;9.006;2023-08-06T04:41:59;96217.47;;;15.41;91.67
41703;BME280;861;48.808;9.006;2023-08-06T04:44:26;96215.34;;;15.32;91.08
41703;BME280;861;48.808;9.006;2023-08-06T04:46:52;96222.00;;;15.47;90.71
41703;BME280;861;48.808;9.006;2023-08-06T04:49:23;96224.50;;;15.54;88.77
41703;BME280;861;48.808;9.006;2023-08-06T04:51:49;96218.28;;;15.66;88.60
41703;BME280;861;48.808;9.006;2023-08-06T04:54:16;96218.25;;;15.41;88.89
41703;BME280;861;48.808;9.006;2023-08-06T04:56:43;96222.63;;;15.39;88.42
41703;BME280;861;48.808;9.006;2023-08-06T04:59:09;96219.25;;;15.18;89.99
41703;BME280;861;48.808;9.006;2023-08-06T05:01:36;96214.78;;;15.24;89.57
41703;BME280;861;48.808;9.006;2023-08-06T05:04:02;96219.69;;;15.17;89.73
41703;BME280;861;48.808;9.006;2023-08-06T05:06:29;96221.22;;;15.18;90.22
41703;BME280;861;48.808;9.006;2023-08-06T05:08:55;96222.00;;;15.18;90.60
41703;BME280;861;48.808;9.006;2023-08-06T05:11:22;96215.13;;;15.26;90.71
41703;BME280;861;48.808;9.006;2023-08-06T05:13:50;96214.28;;;15.42;90.07
41703;BME280;861;48.808;9.006;2023-08-06T05:16:16;96211.56;;;15.67;89.58
41703;BME280;861;48.808;9.006;2023-08-06T05:18:43;96204.66;;;15.75;88.50
41703;BME280;861;48.808;9.006;2023-08-06T05:21:10;96208.28;;;15.97;88.09
41703;BME280;861;48.808;9.006;2023-08-06T05:23:36;96206.41;;;16.07;86.55
41703;BME280;861;48.808;9.006;2023-08-06T05:26:03;96210.34;;;16.06;86.91
41703;BME280;861;48.808;9.006;2023-08-06T05:28:30;96217.84;;;16.05;88.17
41703;BME280;861;48.808;9.006;2023-08-06T05:30:56;96214.84;;;16.25;87.11
41703;BME280;861;48.808;9.006;2023-08-06T05:33:23;96216.50;;;16.10;88.50
41703;BME280;861;48.808;9.006;2023-08-06T05:35:50;96219.47;;;16.15;87.95
41703;BME280;861;48.808;9.006;2023-08-06T05:38:17;96211.53;;;16.30;88.21
41703;BME280;861;48.808;9.006;2023-08-06T05:40:44;96214.19;;;16.21;89.26
41703;BME280;861;48.808;9.006;2023-08-06T05:43:13;96231.56;;;16.18;87.86
41703;BME280;861;48.808;9.006;2023-08-06T05:45:43;96234.94;;;16.22;87.86
41703;BME280;861;48.808;9.006;2023-08-06T05:48:11;96230.69;;;15.96;88.43
41703;BME280;861;48.808;9.006;2023-08-06T05:50:38;96244.09;;;15.94;87.80
41703;BME280;861;48.808;9.006;2023-08-06T05:53:05;96234.63;;;15.82;89.33
41703;BME280;861;48.808;9.006;2023-08-06T05:55:31;96240.69;;;15.90;89.51
41703;BME280;861;48.808;9.006;2023-08-06T05:57:59;96239.25;;;15.85;88.45
41703;BME280;861;48.808;9.006;2023-08-06T06:00:25;96232.66;;;15.70;88.96
41703;BME280;861;48.808;9.006;2023-08-06T06:02:52;96234.28;;;15.43;90.27
41703;BME280;861;48.808;9.006;2023-08-06T06:05:19;96229.00;;;15.48;89.85
41703;BME280;861;48.808;9.006;2023-08-06T06:07:45;96238.91;;;15.58;89.34
41703;BME280;861;48.808;9.006;2023-08-06T06:10:12;96237.50;;;15.25;91.45
41703;BME280;861;48.808;9.006;2023-08-06T06:12:40;96239.34;;;15.57;88.84
41703;BME280;861;48.808;9.006;2023-08-06T06:15:07;96232.28;;;15.43;90.55
41703;BME280;861;48.808;9.006;2023-08-06T06:17:34;96239.47;;;15.24;92.42
41703;BME280;861;48.808;9.006;2023-08-06T06:20:01;96245.38;;;15.23;93.51
41703;BME280;861;48.808;9.006;2023-08-06T06:22:30;96258.97;;;15.43;90.63
41703;BME280;861;48.808;9.006;2023-08-06T06:24:57;96256.31;;;15.39;90.38
41703;BME280;861;48.808;9.006;2023-08-06T06:27:23;96258.84;;;15.46;90.51
41703;BME280;861;48.808;9.006;2023-08-06T06:29:50;96252.47;;;15.08;93.00
41703;BME280;861;48.808;9.006;2023-08-06T06:32:18;96256.53;;;15.16;92.70
41703;BME280;861;48.808;9.006;2023-08-06T06:34:45;96254.69;;;15.25;92.98
41703;BME280;861;48.808;9.006;2023-08-06T06:37:11;96257.34;;;15.70;89.75
41703;BME280;861;48.808;9.006;2023-08-06T06:39:38;96263.75;;;15.80;87.75
41703;BME280;861;48.808;9.006;2023-08-06T06:42:06;96265.84;;;15.76;87.66
41703;BME280;861;48.808;9.006;2023-08-06T06:44:33;96262.81;;;15.45;89.84
41703;BME280;861;48.808;9.006;2023-08-06T06:46:59;96271.69;;;15.49;89.23
41703;BME280;861;48.808;9.006;2023-08-06T06:49:26;96266.75;;;15.44;89.66
41703;BME280;861;48.808;9.006;2023-08-06T06:51:52;96261.59;;;15.46;88.75
41703;BME280;861;48.808;9.006;2023-08-06T06:54:19;96268.63;;;15.47;89.15
41703;BME280;861;48.808;9.006;2023-08-06T06:56:46;96259.72;;;15.43;89.00
41703;BME280;861;48.808;9.006;2023-08-06T06:59:12;96258.28;;;15.39;89.57
41703;BME280;861;48.808;9.006;2023-08-06T07:01:39;96259.75;;;15.27;89.59
41703;BME280;861;48.808;9.006;2023-08-06T07:04:05;96265.56;;;15.58;88.28
41703;BME280;861;48.808;9.006;2023-08-06T07:06:32;96266.56;;;15.35;90.51
41703;BME280;861;48.808;9.006;2023-08-06T07:08:59;96269.19;;;15.26;91.39
41703;BME280;861;48.808;9.006;2023-08-06T07:11:25;96261.28;;;15.15;91.93
41703;BME280;861;48.808;9.006;2023-08-06T07:13:57;96270.19;;;15.03;92.37
41703;BME280;861;48.808;9.006;2023-08-06T07:16:25;96270.16;;;14.91;93.30
41703;BME280;861;48.808;9.006;2023-08-06T07:18:55;96274.47;;;15.20;91.05
41703;BME280;861;48.808;9.006;2023-08-06T07:21:22;96275.94;;;15.09;91.73
41703;BME280;861;48.808;9.006;2023-08-06T07:23:49;96278.84;;;15.30;90.55
41703;BME280;861;48.808;9.006;2023-08-06T07:26:17;96278.50;;;15.28;91.50
41703;BME280;861;48.808;9.006;2023-08-06T07:28:43;96289.06;;;15.30;90.49
41703;BME280;861;48.808;9.006;2023-08-06T07:31:11;96277.63;;;15.19;91.70
41703;BME280;861;48.808;9.006;2023-08-06T07:33:38;96289.25;;;15.23;91.44
41703;BME280;861;48.808;9.006;2023-08-06T07:36:13;96287.09;;;15.02;93.21
41703;BME280;861;48.808;9.006;2023-08-06T07:38:41;96284.97;;;14.93;93.11
41703;BME280;861;48.808;9.006;2023-08-06T07:41:09;96281.94;;;15.32;92.57
41703;BME280;861;48.808;9.006;2023-08-06T07:43:35;96293.97;;;15.22;93.20
41703;BME280;861;48.808;9.006;2023-08-06T07:46:03;96294.09;;;15.19;92.44
41703;BME280;861;48.808;9.006;2023-08-06T07:48:30;96286.94;;;14.93;95.52
41703;BME280;861;48.808;9.006;2023-08-06T07:50:57;96292.13;;;15.03;94.73
41703;BME280;861;48.808;9.006;2023-08-06T07:53:25;96278.09;;;15.30;93.66
41703;BME280;861;48.808;9.006;2023-08-06T07:55:58;96280.47;;;15.44;93.51
41703;BME280;861;48.808;9.006;2023-08-06T07:58:26;96273.25;;;15.50;94.05
41703;BME280;861;48.808;9.006;2023-08-06T08:00:52;96271.53;;;15.69;92.39
41703;BME280;861;48.808;9.006;2023-08-06T08:03:19;96271.44;;;15.85;91.87
41703;BME280;861;48.808;9.006;2023-08-06T08:05:46;96272.75;;;16.05;92.11
41703;BME280;861;48.808;9.006;2023-08-06T08:08:13;96270.22;;;16.11;90.48
41703;BME280;861;48.808;9.006;2023-08-06T08:10:39;96266.91;;;16.41;87.65
41703;BME280;861;48.808;9.006;2023-08-06T08:13:06;96274.19;;;16.10;88.89
41703;BME280;861;48.808;9.006;2023-08-06T08:15:33;96280.66;;;16.03;91.51
41703;BME280;861;48.808;9.006;2023-08-06T08:18:00;96265.72;;;16.17;89.40
41703;BME280;861;48.808;9.006;2023-08-06T08:20:27;96272.31;;;16.19;90.26
41703;BME280;861;48.808;9.006;2023-08-06T08:22:59;96272.09;;;16.26;88.55
41703;BME280;861;48.808;9.006;2023-08-06T08:25:27;96275.72;;;15.98;90.69
41703;BME280;861;48.808;9.006;2023-08-06T08:27:55;96275.06;;;15.94;90.84
41703;BME280;861;48.808;9.006;2023-08-06T08:30:22;96284.72;;;15.99;89.63
41703;BME280;861;48.808;9.006;2023-08-06T08:32:51;96277.13;;;16.15;88.68
41703;BME280;861;48.808;9.006;2023-08-06T08:35:17;96268.59;;;16.26;88.65
41703;BME280;861;48.808;9.006;2023-08-06T08:37:44;96267.03;;;16.25;89.06
41703;BME280;861;48.808;9.006;2023-08-06T08:40:11;96255.28;;;16.49;88.83
41703;BME280;861;48.808;9.006;2023-08-06T08:42:38;96265.41;;;16.27;88.91
41703;BME280;861;48.808;9.006;2023-08-06T08:45:15;96262.63;;;16.65;88.39
41703;BME280;861;48.808;9.006;2023-08-06T08:47:44;96258.66;;;16.53;86.66
41703;BME280;861;48.808;9.006;2023-08-06T08:50:13;96263.84;;;16.26;89.03
41703;BME280;861;48.808;9.006;2023-08-06T08:52:41;96268.56;;;16.38;87.81
41703;BME280;861;48.808;9.006;2023-08-06T08:55:14;96263.09;;;16.13;90.53
41703;BME280;861;48.808;9.006;2023-08-06T08:57:42;96276.41;;;16.02;90.97
41703;BME280;861;48.808;9.006;2023-08-06T09:00:09;96275.06;;;16.19;88.84
41703;BME280;861;48.808;9.006;2023-08-06T09:02:40;96277.81;;;16.07;89.43
41703;BME280;861;48.808;9.006;2023-08-06T09:05:11;96279.88;;;16.15;90.03
41703;BME280;861;48.808;9.006;2023-08-06T09:07:48;96270.13;;;16.02;91.08
41703;BME280;861;48.808;9.006;2023-08-06T09:10:17;96280.34;;;16.14;91.61
41703;BME280;861;48.808;9.006;2023-08-06T09:12:51;96278.78;;;16.25;91.25
41703;BME280;861;48.808;9.006;2023-08-06T09:15:25;96272.66;;;16.21;91.93
41703;BME280;861;48.808;9.006;2023-08-06T09:17:56;96285.50;;;16.12;93.54
41703;BME280;861;48.808;9.006;2023-08-06T09:20:22;96292.97;;;16.11;92.05
41703;BME280;861;48.808;9.006;2023-08-06T09:22:49;96296.94;;;16.23;91.96
41703;BME280;861;48.808;9.006;2023-08-06T09:25:24;96292.88;;;16.27;91.50
41703;BME280;861;48.808;9.006;2023-08-06T09:27:52;96296.69;;;16.42;88.89
41703;BME280;861;48.808;9.006;2023-08-06T09:30:34;96290.56;;;16.63;88.29
41703;BME280;861;48.808;9.006;2023-08-06T09:33:04;96292.31;;;16.57;90.09
41703;BME280;861;48.808;9.006;2023-08-06T09:35:36;96297.94;;;16.54;87.98
41703;BME280;861;48.808;9.006;2023-08-06T09:38:10;96300.00;;;16.50;88.30
41703;BME280;861;48.808;9.006;2023-08-06T09:40:39;96300.16;;;16.46;87.11
41703;BME280;861;48.808;9.006;2023-08-06T09:43:07;96296.16;;;16.35;87.17
41703;BME280;861;48.808;9.006;2023-08-06T09:45:38;96301.22;;;16.61;86.74
41703;BME280;861;48.808;9.006;2023-08-06T09:48:08;96306.16;;;16.66;85.22
41703;BME280;861;48.808;9.006;2023-08-06T09:50:37;96296.06;;;16.63;83.99
41703;BME280;861;48.808;9.006;2023-08-06T09:53:07;96303.97;;;16.36;87.77
41703;BME280;861;48.808;9.006;2023-08-06T09:55:37;96292.59;;;16.72;82.68
41703;BME280;861;48.808;9.006;2023-08-06T09:58:05;96304.41;;;16.47;86.06
41703;BME280;861;48.808;9.006;2023-08-06T10:00:34;96302.97;;;16.55;85.36
41703;BME280;861;48.808;9.006;2023-08-06T10:03:01;96310.34;;;16.33;87.87
41703;BME280;861;48.808;9.006;2023-08-06T10:05:30;96308.16;;;16.53;87.87
41703;BME280;861;48.808;9.006;2023-08-06T10:08:00;96318.81;;;16.51;88.40
41703;BME280;861;48.808;9.006;2023-08-06T10:10:30;96314.06;;;16.64;86.14
41703;BME280;861;48.808;9.006;2023-08-06T10:13:00;96323.19;;;16.61;86.34
41703;BME280;861;48.808;9.006;2023-08-06T10:15:31;96324.88;;;16.59;86.10
41703;BME280;861;48.808;9.006;2023-08-06T10:18:02;96338.69;;;16.30;88.94
41703;BME280;861;48.808;9.006;2023-08-06T10:20:34;96331.78;;;16.51;90.37
41703;BME280;861;48.808;9.006;2023-08-06T10:23:06;96326.84;;;16.46;87.92
41703;BME280;861;48.808;9.006;2023-08-06T10:25:41;96328.25;;;16.63;86.18
41703;BME280;861;48.808;9.006;2023-08-06T10:28:11;96328.16;;;16.66;85.82
41703;BME280;861;48.808;9.006;2023-08-06T10:30:48;96327.59;;;16.71;85.85
41703;BME280;861;48.808;9.006;2023-08-06T10:33:14;96319.50;;;16.90;84.77
41703;BME280;861;48.808;9.006;2023-08-06T10:35:47;96325.59;;;16.72;86.62
41703;BME280;861;48.808;9.006;2023-08-06T10:38:25;96329.47;;;16.62;87.92
41703;BME280;861;48.808;9.006;2023-08-06T10:43:37;96338.03;;;16.89;82.02
41703;BME280;861;48.808;9.006;2023-08-06T10:46:21;96333.53;;;16.70;85.64
41703;BME280;861;48.808;9.006;2023-08-06T10:48:49;96349.25;;;16.82;83.53
41703;BME280;861;48.808;9.006;2023-08-06T10:51:17;96345.41;;;16.79;84.14
41703;BME280;861;48.808;9.006;2023-08-06T10:53:48;96354.84;;;16.78;82.78
41703;BME280;861;48.808;9.006;2023-08-06T10:56:21;96360.47;;;16.88;82.04
41703;BME280;861;48.808;9.006;2023-08-06T10:58:51;96361.25;;;16.63;80.46
41703;BME280;861;48.808;9.006;2023-08-06T11:01:23;96363.09;;;16.41;83.15
41703;BME280;861;48.808;9.006;2023-08-06T11:03:51;96353.31;;;16.40;82.23
41703;BME280;861;48.808;9.006;2023-08-06T11:06:21;96350.00;;;16.20;84.40
41703;BME280;861;48.808;9.006;2023-08-06T11:08:54;96355.63;;;16.41;82.98
41703;BME280;861;48.808;9.006;2023-08-06T11:11:23;96364.22;;;16.56;80.33
41703;BME280;861;48.808;9.006;2023-08-06T11:13:53;96380.00;;;16.39;82.90
41703;BME280;861;48.808;9.006;2023-08-06T11:16:24;96368.16;;;16.55;81.13
41703;BME280;861;48.808;9.006;2023-08-06T11:18:52;96375.00;;;16.50;83.71
41703;BME280;861;48.808;9.006;2023-08-06T11:21:22;96364.22;;;16.68;81.07
41703;BME280;861;48.808;9.006;2023-08-06T11:23:51;96371.88;;;16.73;79.75
41703;BME280;861;48.808;9.006;2023-08-06T11:26:21;96384.66;;;16.67;79.03
41703;BME280;861;48.808;9.006;2023-08-06T11:28:50;96386.63;;;16.42;79.64
41703;BME280;861;48.808;9.006;2023-08-06T11:31:24;96388.66;;;16.13;82.22
41703;BME280;861;48.808;9.006;2023-08-06T11:33:54;96400.22;;;16.20;83.34
41703;BME280;861;48.808;9.006;2023-08-06T11:36:34;96395.72;;;16.26;79.17
41703;BME280;861;48.808;9.006;2023-08-06T11:39:06;96410.00;;;16.09;82.87
41703;BME280;861;48.808;9.006;2023-08-06T11:41:34;96396.13;;;16.12;83.17
41703;BME280;861;48.808;9.006;2023-08-06T11:44:04;96410.38;;;15.95;80.31
41703;BME280;861;48.808;9.006;2023-08-06T11:46:54;96410.66;;;15.56;82.25
41703;BME280;861;48.808;9.006;2023-08-06T11:49:58;96412.84;;;15.48;83.22
41703;BME280;861;48.808;9.006;2023-08-06T11:52:26;96414.81;;;15.31;86.27
41703;BME280;861;48.808;9.006;2023-08-06T11:55:08;96425.19;;;15.40;85.39
41703;BME280;861;48.808;9.006;2023-08-06T11:57:39;96417.31;;;15.42;86.08
41703;BME280;861;48.808;9.006;2023-08-06T12:00:13;96432.91;;;15.29;85.71
41703;BME280;861;48.808;9.006;2023-08-06T12:02:43;96448.50;;;15.32;85.41
41703;BME280;861;48.808;9.006;2023-08-06T12:05:22;96421.69;;;15.23;84.60
41703;BME280;861;48.808;9.006;2023-08-06T12:07:53;96445.31;;;15.17;84.89
41703;BME280;861;48.808;9.006;2023-08-06T12:10:27;96448.56;;;15.28;85.13
41703;BME280;861;48.808;9.006;2023-08-06T12:12:55;96450.22;;;15.26;85.60
41703;BME280;861;48.808;9.006;2023-08-06T12:15:23;96464.78;;;15.23;85.00
41703;BME280;861;48.808;9.006;2023-08-06T12:17:51;96443.09;;;15.28;85.14
41703;BME280;861;48.808;9.006;2023-08-06T12:20:18;96467.97;;;15.38;83.14
41703;BME280;861;48.808;9.006;2023-08-06T12:22:44;96465.81;;;15.29;83.68
41703;BME280;861;48.808;9.006;2023-08-06T12:25:13;96460.59;;;15.34;82.15
41703;BME280;861;48.808;9.006;2023-08-06T12:27:44;96460.25;;;15.32;83.00
41703;BME280;861;48.808;9.006;2023-08-06T12:30:13;96451.84;;;15.40;81.23
41703;BME280;861;48.808;9.006;2023-08-06T12:32:39;96450.66;;;15.57;79.06
41703;BME280;861;48.808;9.006;2023-08-06T12:35:07;96446.75;;;15.70;81.65
41703;BME280;861;48.808;9.006;2023-08-06T12:37:35;96437.84;;;16.07;79.19
41703;BME280;861;48.808;9.006;2023-08-06T12:40:02;96438.94;;;16.38;79.30
41703;BME280;861;48.808;9.006;2023-08-06T12:42:28;96438.56;;;16.65;78.20
41703;BME280;861;48.808;9.006;2023-08-06T12:44:55;96444.38;;;16.92;75.64
41703;BME280;861;48.808;9.006;2023-08-06T12:47:22;96461.09;;;16.98;75.84
41703;BME280;861;48.808;9.006;2023-08-06T12:49:49;96467.81;;;16.71;74.57
41703;BME280;861;48.808;9.006;2023-08-06T12:52:16;96474.31;;;16.36;75.98
41703;BME280;861;48.808;9.006;2023-08-06T12:54:43;96472.78;;;16.35;78.09
41703;BME280;861;48.808;9.006;2023-08-06T12:57:12;96475.06;;;16.53;76.96
41703;BME280;861;48.808;9.006;2023-08-06T12:59:38;96469.59;;;16.78;76.98
41703;BME280;861;48.808;9.006;2023-08-06T13:02:06;96471.75;;;16.96;75.55
41703;BME280;861;48.808;9.006;2023-08-06T13:04:32;96475.97;;;17.13;76.38
41703;BME280;861;48.808;9.006;2023-08-06T13:07:00;96465.91;;;17.31;74.18
41703;BME280;861;48.808;9.006;2023-08-06T13:09:26;96479.41;;;17.38;72.80
41703;BME280;861;48.808;9.006;2023-08-06T13:11:54;96473.16;;;17.38;72.94
41703;BME280;861;48.808;9.006;2023-08-06T13:14:20;96492.75;;;17.40;72.74
41703;BME280;861;48.808;9.006;2023-08-06T13:16:47;96490.44;;;17.26;71.90
41703;BME280;861;48.808;9.006;2023-08-06T13:19:14;96479.91;;;17.12;74.51
41703;BME280;861;48.808;9.006;2023-08-06T13:24:16;96507.63;;;17.42;72.60
41703;BME280;861;48.808;9.006;2023-08-06T13:26:43;96491.88;;;17.18;72.63
41703;BME280;861;48.808;9.006;2023-08-06T13:29:10;96500.38;;;17.23;73.79
41703;BME280;861;48.808;9.006;2023-08-06T13:31:38;96505.53;;;16.96;72.56
41703;BME280;861;48.808;9.006;2023-08-06T13:34:05;96495.41;;;16.80;72.15
41703;BME280;861;48.808;9.006;2023-08-06T13:36:31;96517.94;;;16.63;73.50
41703;BME280;861;48.808;9.006;2023-08-06T13:38:58;96520.66;;;16.50;75.06
41703;BME280;861;48.808;9.006;2023-08-06T13:41:24;96521.34;;;16.54;76.21